createdAt,value
2022-09-10T00:03:11.983Z,15.21
2022-09-10T00:08:16.453Z,15.18
2022-09-10T00:13:22.961Z,15.25
2022-09-10T00:18:25.368Z,15.17
2022-09-10T00:23:30.419Z,15.11
2022-09-10T00:28:33.009Z,15.27
2022-09-10T00:33:35.656Z,15.21
2022-09-10T00:38:39.955Z,15.04
2022-09-10T00:43:51.017Z,15.12
2022-09-10T00:48:55.923Z,15.18
2022-09-10T00:54:00.221Z,15.13
2022-09-10T00:59:04.372Z,15.07
2022-09-10T01:04:10.542Z,14.99
2022-09-10T01:09:15.148Z,15.06
2022-09-10T01:14:43.833Z,14.96
2022-09-10T01:20:14.962Z,14.98
2022-09-10T01:25:24.531Z,14.95
2022-09-10T01:30:32.827Z,14.98
2022-09-10T01:35:40.759Z,14.93
2022-09-10T01:40:43.628Z,14.82
2022-09-10T01:46:10.418Z,14.90
2022-09-10T01:51:21.824Z,14.97
2022-09-10T01:56:35.401Z,15.06
2022-09-10T02:01:45.573Z,15.06
2022-09-10T02:06:49.073Z,14.91
2022-09-10T02:11:54.079Z,14.89
2022-09-10T02:17:13.989Z,14.94
2022-09-10T02:22:16.700Z,14.93
2022-09-10T02:27:19.388Z,14.83
2022-09-10T02:32:23.366Z,14.89
2022-09-10T02:37:28.214Z,14.98
2022-09-10T02:42:30.767Z,14.93
2022-09-10T02:47:34.703Z,14.82
2022-09-10T02:52:37.376Z,14.75
2022-09-10T02:57:42.132Z,14.70
2022-09-10T03:02:47.295Z,14.68
2022-09-10T03:07:50.340Z,14.77
2022-09-10T03:12:53.753Z,14.87
2022-09-10T03:17:58.250Z,14.75
2022-09-10T03:23:01.081Z,14.74
2022-09-10T03:28:03.984Z,14.76
2022-09-10T03:33:08.734Z,14.67
2022-09-10T03:38:11.684Z,14.65
2022-09-10T03:43:15.271Z,14.61
2022-09-10T03:48:20.414Z,14.49
2022-09-10T03:53:23.629Z,14.39
2022-09-10T03:58:26.695Z,14.40
2022-09-10T04:03:30.892Z,14.37
2022-09-10T04:08:33.485Z,14.46
2022-09-10T04:13:36.140Z,14.46
2022-09-10T04:18:40.481Z,14.41
2022-09-10T04:23:43.807Z,14.42
2022-09-10T04:28:46.868Z,14.27
2022-09-10T04:33:53.575Z,14.29
2022-09-10T04:38:59.818Z,14.38
2022-09-10T04:44:03.428Z,14.41
2022-09-10T04:49:07.739Z,14.42
2022-09-10T04:54:13.434Z,14.38
2022-09-10T04:59:16.853Z,14.29
2022-09-10T05:04:22.789Z,14.31
2022-09-10T05:09:28.253Z,14.41
2022-09-10T05:14:31.495Z,14.52
2022-09-10T05:19:35.437Z,14.48
2022-09-10T05:24:43.005Z,14.47
2022-09-10T05:29:45.999Z,14.48
2022-09-10T05:34:50.345Z,14.39
2022-09-10T05:39:53.192Z,14.52
2022-09-10T05:44:56.032Z,14.72
2022-09-10T05:50:00.225Z,14.67
2022-09-10T05:55:03.794Z,14.53
2022-09-10T06:00:09.034Z,14.65
2022-09-10T06:05:21.045Z,14.64
2022-09-10T06:10:24.186Z,14.78
2022-09-10T06:15:27.838Z,14.76
2022-09-10T06:20:32.043Z,14.80
2022-09-10T06:25:35.872Z,14.81
2022-09-10T06:30:38.964Z,14.78
2022-09-10T06:35:44.917Z,14.89
2022-09-10T06:40:54.504Z,15.00
2022-09-10T06:45:57.433Z,15.04
2022-09-10T06:51:23.043Z,15.01
2022-09-10T06:56:27.211Z,14.92
2022-09-10T07:01:30.613Z,14.99
2022-09-10T07:06:38.255Z,15.01
2022-09-10T07:11:44.842Z,15.16
2022-09-10T07:16:51.297Z,15.21
2022-09-10T07:21:57.079Z,15.16
2022-09-10T07:27:00.160Z,15.01
2022-09-10T07:32:04.330Z,14.97
2022-09-10T07:37:09.225Z,15.22
2022-09-10T07:42:12.489Z,15.31
2022-09-10T07:47:16.836Z,15.33
2022-09-10T07:52:21.588Z,15.38
2022-09-10T07:57:28.548Z,15.45
2022-09-10T08:02:31.438Z,15.63
2022-09-10T08:07:40.560Z,15.78
2022-09-10T08:12:43.523Z,16.01
2022-09-10T08:17:47.085Z,16.27
2022-09-10T08:22:52.455Z,16.61
2022-09-10T08:27:55.312Z,16.42
2022-09-10T08:32:58.885Z,16.72
2022-09-10T08:38:02.965Z,16.57
2022-09-10T08:43:06.608Z,16.70
2022-09-10T08:48:15.718Z,16.72
2022-09-10T08:53:25.757Z,16.86
2022-09-10T08:58:31.796Z,16.77
2022-09-10T09:03:36.936Z,17.18
2022-09-10T09:08:48.685Z,16.98
2022-09-10T09:14:20.408Z,17.09
2022-09-10T09:19:29.246Z,17.13
2022-09-10T09:24:41.176Z,17.30
2022-09-10T09:29:48.801Z,17.38
2022-09-10T09:34:54.323Z,17.34
2022-09-10T09:40:08.680Z,17.15
2022-09-10T09:45:21.996Z,17.85
2022-09-10T09:50:24.779Z,17.83
2022-09-10T09:55:31.144Z,17.87
2022-09-10T10:00:36.495Z,18.07
2022-09-10T10:05:39.356Z,18.10
2022-09-10T10:10:44.659Z,18.53
2022-09-10T10:15:47.475Z,18.72
2022-09-10T10:20:53.254Z,19.11
2022-09-10T10:25:57.385Z,18.64
2022-09-10T10:31:01.419Z,18.37
2022-09-10T10:36:10.074Z,18.80
2022-09-10T10:41:34.202Z,18.59
2022-09-10T10:46:41.235Z,18.69
2022-09-10T10:51:51.290Z,19.07
2022-09-10T10:57:02.477Z,19.30
2022-09-10T11:02:14.893Z,19.17
2022-09-10T11:07:21.696Z,19.42
2022-09-10T11:12:31.476Z,19.30
2022-09-10T11:17:39.568Z,19.29
2022-09-10T11:23:07.557Z,19.12
2022-09-10T11:28:16.945Z,18.98
2022-09-10T11:33:24.344Z,19.11
2022-09-10T11:38:45.731Z,19.00
2022-09-10T11:43:55.494Z,19.02
2022-09-10T11:49:09.339Z,18.99
2022-09-10T11:54:14.543Z,18.90
2022-09-10T11:59:49.968Z,19.11
2022-09-10T12:04:57.592Z,19.13
2022-09-10T12:10:14.500Z,19.25
2022-09-10T12:15:20.544Z,19.10
2022-09-10T12:20:28.463Z,19.07
2022-09-10T12:25:34.533Z,19.03
2022-09-10T12:31:02.709Z,19.04
2022-09-10T12:36:07.173Z,19.01
2022-09-10T12:41:10.700Z,19.09
2022-09-10T12:46:18.743Z,18.68
2022-09-10T12:51:32.892Z,18.75
2022-09-10T12:57:09.769Z,18.70
2022-09-10T13:02:28.421Z,18.54
2022-09-10T13:07:41.642Z,18.74
2022-09-10T13:12:45.168Z,18.46
2022-09-10T13:18:29.302Z,18.53
2022-09-10T13:23:50.017Z,18.40
2022-09-10T13:29:11.139Z,18.23
2022-09-10T13:34:53.422Z,18.30
2022-09-10T13:40:23.025Z,18.45
2022-09-10T13:45:29.205Z,18.37
2022-09-10T13:50:37.639Z,18.40
2022-09-10T13:55:50.923Z,18.19
2022-09-10T14:00:58.145Z,18.22
2022-09-10T14:06:05.072Z,18.26
2022-09-10T14:11:16.375Z,18.43
2022-09-10T14:16:21.866Z,18.27
2022-09-10T14:21:27.941Z,18.32
2022-09-10T14:26:33.464Z,18.26
2022-09-10T14:31:37.219Z,18.20
2022-09-10T14:36:39.798Z,18.33
2022-09-10T14:41:44.674Z,18.12
2022-09-10T14:46:50.197Z,18.32
2022-09-10T14:51:52.867Z,18.10
2022-09-10T14:56:59.436Z,18.13
2022-09-10T15:02:03.326Z,18.14
2022-09-10T15:07:05.962Z,18.21
2022-09-10T15:12:14.878Z,17.97
2022-09-10T15:17:18.523Z,18.06
2022-09-10T15:22:24.598Z,18.15
2022-09-10T15:27:28.508Z,18.02
2022-09-10T15:32:31.394Z,18.31
2022-09-10T15:37:33.972Z,18.10
2022-09-10T15:42:38.044Z,18.19
2022-09-10T15:47:41.831Z,18.12
2022-09-10T15:52:44.798Z,18.16
2022-09-10T15:57:50.715Z,18.13
2022-09-10T16:02:54.155Z,17.98
2022-09-10T16:07:56.804Z,18.00
2022-09-10T16:13:00.828Z,17.98
2022-09-10T16:18:03.384Z,18.10
2022-09-10T16:23:05.970Z,18.12
2022-09-10T16:28:09.887Z,17.97
2022-09-10T16:33:12.488Z,17.84
2022-09-10T16:38:15.053Z,17.93
2022-09-10T16:43:18.965Z,17.82
2022-09-10T16:48:21.778Z,17.92
2022-09-10T16:53:24.392Z,17.90
2022-09-10T16:58:29.541Z,18.04
2022-09-10T17:03:34.416Z,17.85
2022-09-10T17:08:37.203Z,18.03
2022-09-10T17:13:41.380Z,17.73
2022-09-10T17:18:44.576Z,17.69
2022-09-10T17:23:47.224Z,17.69
2022-09-10T17:28:55.549Z,17.62
2022-09-10T17:33:59.093Z,17.58
2022-09-10T17:39:01.662Z,17.61
2022-09-10T17:44:05.582Z,17.53
2022-09-10T17:49:08.240Z,17.69
2022-09-10T17:54:10.881Z,17.39
2022-09-10T17:59:14.910Z,17.27
2022-09-10T18:04:17.912Z,17.26
2022-09-10T18:09:20.512Z,17.15
2022-09-10T18:14:25.658Z,17.23
2022-09-10T18:19:28.247Z,16.68
2022-09-10T18:24:31.494Z,16.60
2022-09-10T18:29:35.464Z,16.65
2022-09-10T18:34:40.478Z,16.62
2022-09-10T18:39:43.124Z,16.74
2022-09-10T18:44:47.080Z,16.77
2022-09-10T18:49:50.367Z,16.83
2022-09-10T18:54:53.018Z,16.75
2022-09-10T18:59:57.066Z,16.72
2022-09-10T19:05:11.279Z,16.43
2022-09-10T19:10:14.561Z,16.25
2022-09-10T19:15:18.585Z,16.34
2022-09-10T19:20:21.836Z,16.51
2022-09-10T19:25:24.671Z,16.36
2022-09-10T19:30:31.529Z,16.26
2022-09-10T19:35:36.552Z,16.27
2022-09-10T19:40:39.718Z,16.11
2022-09-10T19:45:43.788Z,16.10
2022-09-10T19:50:46.346Z,16.29
2022-09-10T19:55:49.710Z,16.40
2022-09-10T20:00:53.716Z,16.52
2022-09-10T20:05:57.097Z,16.40
2022-09-10T20:10:59.696Z,16.42
2022-09-10T20:16:04.580Z,16.21
2022-09-10T20:21:12.685Z,16.26
2022-09-10T20:26:17.568Z,16.23
2022-09-10T20:31:22.716Z,16.23
2022-09-10T20:36:26.254Z,16.34
2022-09-10T20:41:29.957Z,16.31
2022-09-10T20:46:34.360Z,16.40
2022-09-10T20:51:38.754Z,16.35
2022-09-10T20:56:41.455Z,16.39
2022-09-10T21:01:46.906Z,16.35
2022-09-10T21:06:49.582Z,16.29
2022-09-10T21:11:52.164Z,16.26
2022-09-10T21:16:56.119Z,16.19
2022-09-10T21:21:58.689Z,16.15
2022-09-10T21:27:02.985Z,16.14
2022-09-10T21:32:07.223Z,16.10
2022-09-10T21:37:10.182Z,15.94
2022-09-10T21:42:12.756Z,15.56
2022-09-10T21:47:16.689Z,15.72
2022-09-10T21:52:19.267Z,15.64
2022-09-10T21:57:21.818Z,15.72
2022-09-10T22:02:25.787Z,15.77
2022-09-10T22:07:29.950Z,15.68
2022-09-10T22:12:32.615Z,15.68
2022-09-10T22:17:36.568Z,15.58
2022-09-10T22:22:39.308Z,15.52
2022-09-10T22:27:41.896Z,15.49
2022-09-10T22:32:45.827Z,15.50
2022-09-10T22:37:48.416Z,15.51
2022-09-10T22:42:51.616Z,15.44
2022-09-10T22:47:55.524Z,15.45
2022-09-10T22:52:59.224Z,15.34
2022-09-10T22:58:01.984Z,15.37
2022-09-10T23:03:05.943Z,15.44
2022-09-10T23:08:08.523Z,15.48
2022-09-10T23:13:11.110Z,15.37
2022-09-10T23:18:15.025Z,15.34
2022-09-10T23:23:17.633Z,15.20
2022-09-10T23:28:20.231Z,15.23
2022-09-10T23:33:24.151Z,15.14
2022-09-10T23:38:27.483Z,15.22
2022-09-10T23:43:30.598Z,15.19
2022-09-10T23:48:34.530Z,15.24
2022-09-10T23:53:37.093Z,15.14
2022-09-10T23:58:40.262Z,15.06
